createdAt,value
2018-08-27T00:00:09.772Z,14.14
2018-08-27T00:02:38.306Z,14.36
2018-08-27T00:05:06.802Z,14.43
2018-08-27T00:07:35.293Z,14.55
2018-08-27T00:10:04.223Z,14.62
2018-08-27T00:12:32.708Z,14.69
2018-08-27T00:15:01.234Z,14.79
2018-08-27T00:17:29.697Z,14.81
2018-08-27T00:19:58.233Z,14.84
2018-08-27T00:22:27.192Z,14.89
2018-08-27T00:24:55.638Z,14.90
2018-08-27T00:27:24.080Z,14.92
2018-08-27T00:29:52.561Z,14.91
2018-08-27T00:32:21.091Z,14.85
2018-08-27T00:34:49.616Z,14.85
2018-08-27T00:37:18.090Z,14.87
2018-08-27T00:39:46.692Z,14.78
2018-08-27T00:42:15.214Z,14.68
2018-08-27T00:44:43.795Z,14.49
2018-08-27T00:47:12.320Z,14.36
2018-08-27T00:49:40.789Z,14.20
2018-08-27T00:52:09.282Z,13.96
2018-08-27T00:54:37.818Z,13.86
2018-08-27T00:57:06.309Z,13.86
2018-08-27T00:59:34.854Z,13.69
2018-08-27T01:02:03.382Z,13.59
2018-08-27T01:04:31.861Z,13.58
2018-08-27T01:07:00.344Z,13.57
2018-08-27T01:09:28.885Z,13.48
2018-08-27T01:11:57.494Z,13.41
2018-08-27T01:14:26.067Z,13.42
2018-08-27T01:16:54.611Z,13.31
2018-08-27T01:19:23.117Z,13.30
2018-08-27T01:21:51.649Z,13.25
2018-08-27T01:24:20.243Z,13.16
2018-08-27T01:26:48.769Z,13.09
2018-08-27T01:29:17.334Z,13.11
2018-08-27T01:31:50.893Z,13.10
2018-08-27T01:34:19.386Z,13.10
2018-08-27T01:36:47.900Z,13.08
2018-08-27T01:39:16.399Z,13.04
2018-08-27T01:41:44.882Z,12.99
2018-08-27T01:44:13.340Z,12.97
2018-08-27T01:46:41.857Z,12.91
2018-08-27T01:49:10.351Z,12.90
2018-08-27T01:51:38.941Z,12.91
2018-08-27T01:54:07.581Z,12.92
2018-08-27T01:56:36.081Z,12.91
2018-08-27T01:59:04.600Z,12.96
2018-08-27T02:01:33.652Z,12.94
2018-08-27T02:04:02.128Z,12.98
2018-08-27T02:06:36.620Z,12.99
2018-08-27T02:09:07.902Z,13.07
2018-08-27T02:11:36.760Z,13.01
2018-08-27T02:14:05.323Z,13.00
2018-08-27T02:16:33.858Z,13.00
2018-08-27T02:19:02.410Z,13.05
2018-08-27T02:21:30.909Z,13.08
2018-08-27T02:23:59.378Z,13.10
2018-08-27T02:26:28.001Z,13.10
2018-08-27T02:28:56.491Z,13.13
2018-08-27T02:31:24.982Z,13.10
2018-08-27T02:33:53.486Z,13.15
2018-08-27T02:36:21.961Z,13.17
2018-08-27T02:38:50.494Z,13.13
2018-08-27T02:41:18.985Z,13.17
2018-08-27T02:43:47.470Z,13.15
2018-08-27T02:46:16.002Z,13.15
2018-08-27T02:48:44.531Z,13.12
2018-08-27T02:51:13.366Z,13.13
2018-08-27T02:53:41.869Z,13.13
2018-08-27T02:56:10.336Z,13.14
2018-08-27T02:58:38.865Z,13.17
2018-08-27T03:01:07.503Z,13.18
2018-08-27T03:03:36.060Z,13.14
2018-08-27T03:06:04.572Z,13.16
2018-08-27T03:08:33.057Z,13.16
2018-08-27T03:11:01.570Z,13.16
2018-08-27T03:13:30.092Z,13.17
2018-08-27T03:15:58.651Z,13.20
2018-08-27T03:18:27.183Z,13.20
2018-08-27T03:20:55.698Z,13.21
2018-08-27T03:23:24.190Z,13.22
2018-08-27T03:25:52.722Z,13.22
2018-08-27T03:28:21.571Z,13.24
2018-08-27T03:30:50.087Z,13.26
2018-08-27T03:33:18.591Z,13.26
2018-08-27T03:35:47.991Z,13.30
2018-08-27T03:38:16.565Z,13.30
2018-08-27T03:40:45.260Z,13.30
2018-08-27T03:43:13.823Z,13.34
2018-08-27T03:45:42.314Z,13.37
2018-08-27T03:48:10.803Z,13.36
2018-08-27T03:50:39.334Z,13.36
2018-08-27T03:53:07.871Z,13.34
2018-08-27T03:55:36.809Z,13.38
2018-08-27T03:58:05.774Z,13.36
2018-08-27T04:00:34.298Z,13.36
2018-08-27T04:03:02.859Z,13.34
2018-08-27T04:05:31.408Z,13.34
2018-08-27T04:07:59.954Z,13.37
2018-08-27T04:10:28.475Z,13.38
2018-08-27T04:12:56.970Z,13.37
2018-08-27T04:15:25.497Z,13.39
2018-08-27T04:17:54.026Z,13.37
2018-08-27T04:20:23.058Z,13.38
2018-08-27T04:22:51.554Z,13.46
2018-08-27T04:25:20.083Z,13.42
2018-08-27T04:27:48.643Z,13.44
2018-08-27T04:30:17.118Z,13.44
2018-08-27T04:32:45.877Z,13.47
2018-08-27T04:35:14.408Z,13.50
2018-08-27T04:37:42.895Z,13.51
2018-08-27T04:40:11.427Z,13.54
2018-08-27T04:42:40.026Z,13.54
2018-08-27T04:45:08.518Z,13.56
2018-08-27T04:47:36.990Z,13.57
2018-08-27T04:50:05.539Z,13.57
2018-08-27T04:52:34.091Z,13.59
2018-08-27T04:55:02.654Z,13.66
2018-08-27T04:57:31.206Z,13.67
2018-08-27T05:00:02.383Z,13.65
2018-08-27T05:02:30.887Z,13.66
2018-08-27T05:04:59.380Z,13.65
2018-08-27T05:07:27.878Z,13.70
2018-08-27T05:09:56.423Z,13.69
2018-08-27T05:12:24.897Z,13.80
2018-08-27T05:14:53.395Z,13.78
2018-08-27T05:17:28.573Z,13.84
2018-08-27T05:19:57.108Z,13.87
2018-08-27T05:22:25.588Z,13.88
2018-08-27T05:24:54.066Z,13.92
2018-08-27T05:27:22.627Z,13.96
2018-08-27T05:29:51.219Z,13.99
2018-08-27T05:32:19.767Z,14.01
2018-08-27T05:34:48.325Z,14.01
2018-08-27T05:37:16.830Z,14.07
2018-08-27T05:39:45.791Z,14.11
2018-08-27T05:42:14.271Z,14.10
2018-08-27T05:44:42.843Z,14.10
2018-08-27T05:47:11.419Z,14.16
2018-08-27T05:49:39.910Z,14.17
2018-08-27T05:52:08.584Z,14.21
2018-08-27T05:54:37.142Z,14.22
2018-08-27T05:57:05.684Z,14.31
2018-08-27T05:59:34.575Z,14.36
2018-08-27T06:02:03.145Z,14.39
2018-08-27T06:04:31.636Z,14.45
2018-08-27T06:07:00.133Z,14.44
2018-08-27T06:09:28.655Z,14.49
2018-08-27T06:11:57.190Z,14.54
2018-08-27T06:14:25.730Z,14.57
2018-08-27T06:16:54.273Z,14.54
2018-08-27T06:19:22.833Z,14.64
2018-08-27T06:21:51.473Z,14.67
2018-08-27T06:24:19.930Z,14.72
2018-08-27T06:26:48.470Z,14.78
2018-08-27T06:29:17.179Z,14.87
2018-08-27T06:31:45.801Z,14.92
2018-08-27T06:34:14.323Z,14.95
2018-08-27T06:36:42.896Z,14.96
2018-08-27T06:39:11.678Z,14.93
2018-08-27T06:41:40.190Z,14.97
2018-08-27T06:44:08.815Z,15.11
2018-08-27T06:46:37.313Z,15.23
2018-08-27T06:49:06.209Z,15.34
2018-08-27T06:51:34.710Z,15.53
2018-08-27T06:54:03.241Z,15.93
2018-08-27T06:56:31.721Z,16.04
2018-08-27T06:59:00.235Z,15.87
2018-08-27T07:01:28.794Z,15.96
2018-08-27T07:03:57.374Z,16.06
2018-08-27T07:06:25.880Z,16.13
2018-08-27T07:08:54.449Z,16.24
2018-08-27T07:11:22.976Z,16.39
2018-08-27T07:13:51.562Z,16.53
2018-08-27T07:16:20.107Z,16.70
2018-08-27T07:18:48.684Z,16.83
2018-08-27T07:21:17.232Z,17.01
2018-08-27T07:23:45.742Z,17.36
2018-08-27T07:26:14.313Z,17.56
2018-08-27T07:28:42.885Z,17.65
2018-08-27T07:31:11.400Z,17.49
2018-08-27T07:33:39.959Z,17.47
2018-08-27T07:36:08.537Z,17.99
2018-08-27T07:38:37.013Z,17.96
2018-08-27T07:41:05.605Z,18.03
2018-08-27T07:43:34.154Z,18.17
2018-08-27T07:46:02.786Z,18.43
2018-08-27T07:48:31.300Z,18.41
2018-08-27T07:50:59.846Z,18.23
2018-08-27T07:53:28.425Z,18.06
2018-08-27T07:55:57.001Z,18.22
2018-08-27T07:58:25.574Z,18.62
2018-08-27T08:00:54.132Z,18.83
2018-08-27T08:03:22.687Z,18.54
2018-08-27T08:05:51.253Z,18.02
2018-08-27T08:08:19.753Z,17.95
2018-08-27T08:10:48.282Z,17.97
2018-08-27T08:13:16.834Z,18.11
2018-08-27T08:15:45.391Z,18.47
2018-08-27T08:18:20.118Z,18.71
2018-08-27T08:20:49.513Z,18.60
2018-08-27T08:23:18.326Z,18.64
2018-08-27T08:25:47.425Z,18.78
2018-08-27T08:28:15.977Z,19.25
2018-08-27T08:30:44.562Z,19.44
2018-08-27T08:33:13.197Z,19.73
2018-08-27T08:35:42.354Z,20.17
2018-08-27T08:38:10.893Z,20.69
2018-08-27T08:40:39.451Z,20.91
2018-08-27T08:43:07.970Z,20.75
2018-08-27T08:45:36.494Z,20.98
2018-08-27T08:48:05.074Z,20.69
2018-08-27T08:50:33.586Z,20.67
2018-08-27T08:53:02.175Z,21.32
2018-08-27T08:55:30.658Z,21.22
2018-08-27T08:57:59.181Z,20.58
2018-08-27T09:00:27.798Z,20.06
2018-08-27T09:02:56.324Z,20.00
2018-08-27T09:05:24.888Z,19.66
2018-08-27T09:07:53.490Z,19.63
2018-08-27T09:10:21.971Z,19.92
2018-08-27T09:12:50.983Z,20.21
2018-08-27T09:15:19.542Z,20.60
2018-08-27T09:17:48.086Z,21.06
2018-08-27T09:20:16.562Z,21.16
2018-08-27T09:22:45.277Z,20.95
2018-08-27T09:25:13.821Z,20.66
2018-08-27T09:27:42.400Z,20.18
2018-08-27T09:30:10.917Z,20.25
2018-08-27T09:32:39.406Z,19.94
2018-08-27T09:35:08.008Z,19.88
2018-08-27T09:37:36.629Z,19.57
2018-08-27T09:40:05.335Z,19.57
2018-08-27T09:42:33.874Z,19.46
2018-08-27T09:45:02.368Z,19.10
2018-08-27T09:47:31.108Z,19.20
2018-08-27T09:49:59.949Z,18.94
2018-08-27T09:52:28.425Z,18.61
2018-08-27T09:54:57.887Z,18.48
2018-08-27T09:57:26.471Z,18.69
2018-08-27T09:59:54.952Z,19.11
2018-08-27T10:02:23.514Z,19.07
2018-08-27T10:04:52.027Z,19.19
2018-08-27T10:07:20.539Z,19.72
2018-08-27T10:09:49.146Z,20.51
2018-08-27T10:12:17.683Z,21.54
2018-08-27T10:14:46.201Z,21.73
2018-08-27T10:17:14.745Z,22.04
2018-08-27T10:19:43.239Z,22.25
2018-08-27T10:22:11.798Z,22.78
2018-08-27T10:24:40.353Z,22.95
2018-08-27T10:27:08.895Z,22.56
2018-08-27T10:29:37.554Z,22.60
2018-08-27T10:32:06.477Z,22.66
2018-08-27T10:34:35.044Z,22.27
2018-08-27T10:37:03.579Z,21.99
2018-08-27T10:39:32.214Z,21.89
2018-08-27T10:42:00.755Z,22.19
2018-08-27T10:44:29.272Z,21.78
2018-08-27T10:46:57.810Z,21.85
2018-08-27T10:49:26.352Z,21.87
2018-08-27T10:51:54.877Z,21.56
2018-08-27T10:54:23.387Z,20.89
2018-08-27T10:56:51.932Z,20.90
2018-08-27T10:59:20.429Z,20.56
2018-08-27T11:01:48.981Z,19.93
2018-08-27T11:04:17.646Z,19.73
2018-08-27T11:06:46.217Z,19.65
2018-08-27T11:09:14.722Z,19.45
2018-08-27T11:11:43.275Z,18.88
2018-08-27T11:14:11.873Z,18.05
2018-08-27T11:16:40.379Z,17.45
2018-08-27T11:19:09.759Z,17.40
2018-08-27T11:21:38.273Z,17.36
2018-08-27T11:24:12.173Z,17.43
2018-08-27T11:26:45.312Z,17.74
2018-08-27T11:29:14.907Z,18.00
2018-08-27T11:31:44.321Z,18.55
2018-08-27T11:34:12.877Z,19.12
2018-08-27T11:36:41.413Z,19.63
2018-08-27T11:39:12.526Z,19.60
2018-08-27T11:41:41.080Z,20.02
2018-08-27T11:44:09.623Z,19.83
2018-08-27T11:46:38.157Z,19.03
2018-08-27T11:49:07.041Z,18.80
2018-08-27T11:51:35.606Z,18.86
2018-08-27T11:54:04.180Z,18.53
2018-08-27T11:56:32.730Z,18.28
2018-08-27T11:59:01.269Z,18.30
2018-08-27T12:01:29.957Z,18.29
2018-08-27T12:03:58.549Z,18.36
2018-08-27T12:06:28.299Z,18.62
2018-08-27T12:08:56.877Z,18.62
2018-08-27T12:11:25.401Z,19.10
2018-08-27T12:13:54.024Z,19.15
2018-08-27T12:16:22.540Z,19.63
2018-08-27T12:18:51.165Z,19.93
2018-08-27T12:21:19.761Z,20.04
2018-08-27T12:23:48.388Z,20.29
2018-08-27T12:26:16.872Z,20.88
2018-08-27T12:28:45.394Z,21.16
2018-08-27T12:31:13.914Z,20.90
2018-08-27T12:33:42.455Z,20.41
2018-08-27T12:36:10.958Z,20.66
2018-08-27T12:38:39.547Z,20.79
2018-08-27T12:41:08.181Z,21.04
2018-08-27T12:43:36.705Z,20.56
2018-08-27T12:46:05.513Z,20.71
2018-08-27T12:48:34.545Z,20.77
2018-08-27T12:51:03.172Z,20.56
2018-08-27T12:53:31.680Z,20.17
2018-08-27T12:56:01.188Z,20.23
2018-08-27T12:58:29.681Z,19.71
2018-08-27T13:00:58.177Z,19.82
2018-08-27T13:03:26.718Z,19.85
2018-08-27T13:05:55.230Z,19.87
2018-08-27T13:08:23.782Z,20.21
2018-08-27T13:10:52.357Z,20.04
2018-08-27T13:13:21.091Z,20.05
2018-08-27T13:15:49.678Z,19.36
2018-08-27T13:18:24.471Z,19.35
2018-08-27T13:20:53.030Z,19.24
2018-08-27T13:23:21.546Z,19.01
2018-08-27T13:25:50.185Z,18.98
2018-08-27T13:28:18.650Z,19.09
2018-08-27T13:30:47.146Z,18.88
2018-08-27T13:33:15.747Z,19.18
2018-08-27T13:35:44.353Z,19.13
2018-08-27T13:38:12.790Z,19.25
2018-08-27T13:40:41.443Z,19.48
2018-08-27T13:43:09.885Z,19.26
2018-08-27T13:45:38.423Z,19.07
2018-08-27T13:48:07.343Z,19.01
2018-08-27T13:50:35.891Z,18.96
2018-08-27T13:53:04.455Z,19.33
2018-08-27T13:55:33.046Z,19.87
2018-08-27T13:58:01.556Z,19.67
2018-08-27T14:00:30.209Z,19.83
2018-08-27T14:02:58.637Z,19.84
2018-08-27T14:05:27.194Z,19.45
2018-08-27T14:07:55.682Z,19.57
2018-08-27T14:10:24.230Z,19.17
2018-08-27T14:12:52.793Z,18.90
2018-08-27T14:15:21.356Z,18.65
2018-08-27T14:17:49.854Z,18.38
2018-08-27T14:20:18.408Z,17.98
2018-08-27T14:22:46.949Z,17.68
2018-08-27T14:25:15.451Z,17.45
2018-08-27T14:27:43.998Z,17.36
2018-08-27T14:30:12.481Z,17.42
2018-08-27T14:32:41.007Z,17.66
2018-08-27T14:35:09.547Z,17.85
2018-08-27T14:37:38.076Z,18.13
2018-08-27T14:40:07.112Z,18.63
2018-08-27T14:42:35.610Z,18.74
2018-08-27T14:45:04.310Z,18.89
2018-08-27T14:47:32.801Z,19.17
2018-08-27T14:50:01.305Z,19.02
2018-08-27T14:52:29.946Z,19.06
2018-08-27T14:54:58.453Z,19.42
2018-08-27T14:57:26.951Z,19.40
2018-08-27T14:59:55.458Z,19.43
2018-08-27T15:02:24.049Z,19.47
2018-08-27T15:04:52.783Z,19.31
2018-08-27T15:07:22.227Z,18.94
2018-08-27T15:09:50.732Z,18.55
2018-08-27T15:12:19.230Z,18.62
2018-08-27T15:14:47.982Z,18.54
2018-08-27T15:17:16.531Z,18.49
2018-08-27T15:19:45.942Z,18.54
2018-08-27T15:22:14.505Z,18.39
2018-08-27T15:24:43.030Z,18.43
2018-08-27T15:27:11.543Z,18.65
2018-08-27T15:29:40.092Z,18.63
2018-08-27T15:32:08.685Z,18.68
2018-08-27T15:34:37.154Z,18.59
2018-08-27T15:37:05.704Z,18.52
2018-08-27T15:39:34.625Z,18.63
2018-08-27T15:42:03.175Z,18.72
2018-08-27T15:44:31.714Z,18.99
2018-08-27T15:47:00.265Z,18.98
2018-08-27T15:49:28.871Z,18.94
2018-08-27T15:51:57.478Z,18.88
2018-08-27T15:54:26.033Z,19.16
2018-08-27T15:56:54.516Z,19.33
2018-08-27T15:59:23.070Z,19.18
2018-08-27T16:01:51.597Z,18.74
2018-08-27T16:04:20.148Z,18.73
2018-08-27T16:06:48.628Z,18.85
2018-08-27T16:09:17.151Z,19.02
2018-08-27T16:11:45.690Z,19.02
2018-08-27T16:14:14.214Z,18.64
2018-08-27T16:16:42.758Z,18.80
2018-08-27T16:19:11.278Z,18.64
2018-08-27T16:21:39.804Z,18.44
2018-08-27T16:24:08.354Z,18.38
2018-08-27T16:26:40.616Z,18.53
2018-08-27T16:29:09.670Z,18.62
2018-08-27T16:31:38.175Z,18.58
2018-08-27T16:34:06.719Z,18.63
2018-08-27T16:36:35.253Z,18.66
2018-08-27T16:39:04.970Z,18.52
2018-08-27T16:41:33.558Z,18.53
2018-08-27T16:44:02.107Z,18.50
2018-08-27T16:46:30.643Z,18.48
2018-08-27T16:48:59.215Z,18.49
2018-08-27T16:51:28.167Z,18.55
2018-08-27T16:53:56.746Z,18.60
2018-08-27T16:56:25.249Z,18.14
2018-08-27T16:58:53.807Z,18.20
2018-08-27T17:01:22.305Z,18.17
2018-08-27T17:03:50.861Z,18.21
2018-08-27T17:06:19.327Z,18.17
2018-08-27T17:08:47.852Z,18.03
2018-08-27T17:11:16.404Z,17.99
2018-08-27T17:13:44.949Z,17.99
2018-08-27T17:16:13.490Z,17.97
2018-08-27T17:18:42.001Z,17.96
2018-08-27T17:21:10.539Z,17.92
2018-08-27T17:23:39.009Z,17.90
2018-08-27T17:26:07.825Z,17.90
2018-08-27T17:28:36.360Z,17.82
2018-08-27T17:31:04.890Z,17.83
2018-08-27T17:33:33.479Z,17.80
2018-08-27T17:36:02.003Z,17.50
2018-08-27T17:38:30.557Z,17.50
2018-08-27T17:40:59.147Z,17.53
2018-08-27T17:43:27.737Z,17.45
2018-08-27T17:45:56.288Z,17.45
2018-08-27T17:48:24.801Z,17.33
2018-08-27T17:50:53.377Z,17.32
2018-08-27T17:53:21.974Z,17.25
2018-08-27T17:55:50.539Z,17.17
2018-08-27T17:58:19.145Z,17.15
2018-08-27T18:00:47.604Z,16.98
2018-08-27T18:03:16.219Z,16.97
2018-08-27T18:05:44.777Z,16.91
2018-08-27T18:08:13.340Z,16.90
2018-08-27T18:10:41.868Z,16.87
2018-08-27T18:13:10.413Z,16.82
2018-08-27T18:15:38.969Z,16.68
2018-08-27T18:18:07.500Z,16.60
2018-08-27T18:20:35.995Z,16.54
2018-08-27T18:23:04.530Z,16.51
2018-08-27T18:25:33.021Z,16.53
2018-08-27T18:28:01.612Z,16.50
2018-08-27T18:30:30.190Z,16.50
2018-08-27T18:32:58.744Z,16.38
2018-08-27T18:35:27.295Z,16.21
2018-08-27T18:37:55.794Z,16.15
2018-08-27T18:40:24.294Z,16.05
2018-08-27T18:42:52.783Z,16.06
2018-08-27T18:45:21.325Z,16.02
2018-08-27T18:47:49.882Z,16.03
2018-08-27T18:50:18.405Z,16.06
2018-08-27T18:52:46.894Z,16.06
2018-08-27T18:55:15.447Z,16.04
2018-08-27T18:57:44.090Z,16.10
2018-08-27T19:00:12.676Z,16.04
2018-08-27T19:02:41.212Z,16.03
2018-08-27T19:05:09.734Z,16.00
2018-08-27T19:07:38.244Z,15.89
2018-08-27T19:10:06.825Z,15.85
2018-08-27T19:12:35.450Z,15.95
2018-08-27T19:15:04.014Z,15.97
2018-08-27T19:17:32.595Z,16.01
2018-08-27T19:20:01.144Z,16.04
2018-08-27T19:22:29.707Z,16.14
2018-08-27T19:24:58.583Z,16.18
2018-08-27T19:27:33.658Z,16.14
2018-08-27T19:30:02.228Z,16.14
2018-08-27T19:32:30.742Z,16.14
2018-08-27T19:34:59.314Z,16.13
2018-08-27T19:37:27.854Z,16.22
2018-08-27T19:39:56.374Z,16.20
2018-08-27T19:42:24.939Z,16.22
2018-08-27T19:44:53.460Z,16.32
2018-08-27T19:47:22.017Z,16.26
2018-08-27T19:49:50.539Z,16.31
2018-08-27T19:52:19.059Z,16.28
2018-08-27T19:54:47.591Z,16.31
2018-08-27T19:57:16.133Z,16.37
2018-08-27T19:59:44.617Z,16.35
2018-08-27T20:02:13.093Z,16.37
2018-08-27T20:04:41.667Z,16.36
2018-08-27T20:07:10.165Z,16.35
2018-08-27T20:09:38.666Z,16.34
2018-08-27T20:12:07.244Z,16.25
2018-08-27T20:14:35.717Z,16.20
2018-08-27T20:17:04.301Z,16.06
2018-08-27T20:19:32.889Z,15.96
2018-08-27T20:22:01.479Z,15.89
2018-08-27T20:24:30.018Z,15.80
2018-08-27T20:26:58.560Z,15.70
2018-08-27T20:29:27.026Z,15.60
2018-08-27T20:31:55.518Z,15.57
2018-08-27T20:34:24.045Z,15.49
2018-08-27T20:36:52.557Z,15.37
2018-08-27T20:39:21.147Z,15.25
2018-08-27T20:41:50.262Z,15.28
2018-08-27T20:44:18.722Z,15.32
2018-08-27T20:46:47.255Z,15.41
2018-08-27T20:49:15.734Z,15.37
2018-08-27T20:51:44.247Z,15.41
2018-08-27T20:54:12.961Z,15.43
2018-08-27T20:56:41.458Z,15.43
2018-08-27T20:59:10.109Z,15.45
2018-08-27T21:01:38.629Z,15.50
2018-08-27T21:04:07.139Z,15.49
2018-08-27T21:06:35.674Z,15.51
2018-08-27T21:09:04.319Z,15.51
2018-08-27T21:11:32.854Z,15.54
2018-08-27T21:14:15.223Z,15.55
2018-08-27T21:16:43.693Z,15.53
2018-08-27T21:19:12.211Z,15.56
2018-08-27T21:21:40.691Z,15.58
2018-08-27T21:24:09.182Z,15.54
2018-08-27T21:26:37.704Z,15.56
2018-08-27T21:29:06.197Z,15.56
2018-08-27T21:31:34.685Z,15.54
2018-08-27T21:34:03.187Z,15.55
2018-08-27T21:36:31.794Z,15.56
2018-08-27T21:39:00.441Z,15.59
2018-08-27T21:41:28.923Z,15.56
2018-08-27T21:43:57.492Z,15.59
2018-08-27T21:46:25.998Z,15.57
2018-08-27T21:48:54.563Z,15.60
2018-08-27T21:51:23.071Z,15.58
2018-08-27T21:53:51.561Z,15.62
2018-08-27T21:56:20.106Z,15.62
2018-08-27T21:58:48.700Z,15.59
2018-08-27T22:01:17.220Z,15.57
2018-08-27T22:03:50.826Z,15.59
2018-08-27T22:06:19.330Z,15.56
2018-08-27T22:08:47.841Z,15.66
2018-08-27T22:11:16.328Z,15.65
2018-08-27T22:13:44.840Z,15.71
2018-08-27T22:16:13.432Z,15.66
2018-08-27T22:18:41.905Z,15.66
2018-08-27T22:21:10.490Z,15.66
2018-08-27T22:23:39.016Z,15.69
2018-08-27T22:26:07.578Z,15.76
2018-08-27T22:28:36.215Z,15.81
2018-08-27T22:31:05.031Z,15.73
2018-08-27T22:33:33.527Z,15.68
2018-08-27T22:36:02.362Z,15.65
2018-08-27T22:38:30.886Z,15.66
2018-08-27T22:40:59.409Z,15.66
2018-08-27T22:43:27.931Z,15.71
2018-08-27T22:45:56.465Z,15.72
2018-08-27T22:48:24.967Z,15.77
2018-08-27T22:50:53.466Z,15.77
2018-08-27T22:53:22.002Z,15.81
2018-08-27T22:55:50.548Z,15.84
2018-08-27T22:58:19.102Z,15.82
2018-08-27T23:00:47.719Z,15.90
2018-08-27T23:03:21.947Z,15.90
2018-08-27T23:05:50.438Z,15.89
2018-08-27T23:08:18.977Z,15.86
2018-08-27T23:10:47.541Z,15.85
2018-08-27T23:13:16.083Z,15.89
2018-08-27T23:15:44.971Z,15.92
2018-08-27T23:18:13.473Z,15.95
2018-08-27T23:20:42.015Z,15.87
2018-08-27T23:23:10.901Z,15.87
2018-08-27T23:25:39.360Z,15.91
2018-08-27T23:28:07.896Z,15.89
2018-08-27T23:30:36.402Z,15.81
2018-08-27T23:33:05.063Z,15.77
2018-08-27T23:35:33.598Z,15.71
2018-08-27T23:38:02.071Z,15.74
2018-08-27T23:40:30.629Z,15.73
2018-08-27T23:42:59.111Z,15.78
2018-08-27T23:45:27.633Z,15.81
2018-08-27T23:47:56.147Z,15.90
2018-08-27T23:50:24.666Z,15.90
2018-08-27T23:52:53.185Z,15.83
2018-08-27T23:55:21.645Z,15.85
2018-08-27T23:57:50.182Z,15.84
